Time;durP1;ratioP1;P1;durP2;ratioP2;P2;SDS_P1;SDS_P2;PMS_P1;PMS_P2;Temp;Humidity;BMP_temperature;BMP_pressure;BME280_temperature;BME280_humidity;BME280_pressure;Samples;Min_cycle;Max_cycle;Signal;HPM_P1;HPM_P2
2022/10/21 00:01:06;;;;;;;10.98;9.57;;;12.80;99.90;;;;;;5012110;28;20018;-58
2022/10/21 00:03:52;;;;;;;10.68;8.95;;;12.80;99.90;;;;;;5012559;28;20029;-59
2022/10/21 00:06:38;;;;;;;11.10;9.35;;;12.80;99.90;;;;;;5012101;28;20044;-58
2022/10/21 00:09:24;;;;;;;9.88;8.85;;;12.80;99.90;;;;;;5012939;28;20044;-57
2022/10/21 00:12:10;;;;;;;10.07;8.65;;;12.80;99.90;;;;;;5011504;28;20475;-57
2022/10/21 00:14:56;;;;;;;10.88;9.20;;;12.90;99.90;;;;;;5011736;28;20022;-58
2022/10/21 00:17:42;;;;;;;26.73;18.20;;;12.90;99.90;;;;;;5012431;28;20064;-58
2022/10/21 00:20:28;;;;;;;19.33;13.90;;;12.90;99.90;;;;;;5011474;28;20053;-57
2022/10/21 00:23:14;;;;;;;11.60;10.32;;;13.00;99.90;;;;;;5011711;28;20088;-58
2022/10/21 00:26:00;;;;;;;12.73;9.63;;;13.00;99.90;;;;;;5011251;28;20077;-58
2022/10/21 00:28:46;;;;;;;10.00;9.00;;;13.00;99.90;;;;;;5010955;28;20084;-59
2022/10/21 00:31:33;;;;;;;13.30;9.35;;;13.00;99.90;;;;;;5005950;28;20072;-57
2022/10/21 00:34:20;;;;;;;13.82;11.02;;;12.90;99.90;;;;;;4997372;28;20133;-55
2022/10/21 00:37:06;;;;;;;13.70;10.73;;;12.90;99.90;;;;;;4997752;28;20499;-57
2022/10/21 00:39:52;;;;;;;12.13;10.10;;;12.90;99.90;;;;;;5011696;28;22083;-58
2022/10/21 00:42:40;;;;;;;11.38;9.50;;;12.90;99.90;;;;;;4996955;28;20053;-58
2022/10/21 00:45:28;;;;;;;10.93;9.35;;;12.90;99.90;;;;;;5012325;28;20037;-57
2022/10/21 00:48:35;;;;;;;10.23;8.40;;;12.90;99.90;;;;;;5010448;28;20038;-56
2022/10/21 00:51:21;;;;;;;10.23;8.82;;;12.90;99.90;;;;;;5010696;28;20494;-56
2022/10/21 00:54:08;;;;;;;10.48;9.18;;;12.90;99.90;;;;;;4996739;28;20074;-56
2022/10/21 00:56:56;;;;;;;10.00;9.02;;;12.90;99.90;;;;;;4996001;28;20530;-54
2022/10/21 00:59:49;;;;;;;10.73;7.70;;;12.90;99.90;;;;;;5011820;28;20083;-55
2022/10/21 01:02:35;;;;;;;10.45;9.23;;;12.90;99.90;;;;;;5011052;28;20513;-57
2022/10/21 01:05:23;;;;;;;14.32;10.38;;;12.90;99.90;;;;;;4995523;28;20390;-54
2022/10/21 01:08:09;;;;;;;9.43;8.45;;;12.90;99.90;;;;;;4996220;28;20030;-57
2022/10/21 01:10:55;;;;;;;9.60;8.60;;;12.90;99.90;;;;;;4991374;28;20030;-58
2022/10/21 01:13:58;;;;;;;10.98;8.68;;;12.90;99.90;;;;;;4994427;28;20506;-55
2022/10/21 01:16:51;;;;;;;11.63;9.38;;;12.90;99.90;;;;;;5011458;28;20026;-58
2022/10/21 01:20:05;;;;;;;10.77;9.68;;;12.90;99.90;;;;;;5010575;28;20495;-52
2022/10/21 01:23:52;;;;;;;10.27;8.15;;;12.90;99.90;;;;;;5011034;28;20029;-54
2022/10/21 01:27:12;;;;;;;11.40;9.63;;;12.90;99.90;;;;;;4950624;28;20130;-57
2022/10/21 01:30:07;;;;;;;11.05;8.98;;;12.90;99.90;;;;;;4991255;28;20028;-54
2022/10/21 01:33:19;;;;;;;9.90;8.90;;;12.90;99.90;;;;;;4995935;28;20109;-56
2022/10/21 01:36:31;;;;;;;10.25;9.10;;;12.80;99.90;;;;;;5012154;28;20105;-56
2022/10/21 01:39:34;;;;;;;11.85;9.27;;;12.90;99.90;;;;;;4998376;28;20032;-57
2022/10/21 01:42:45;;;;;;;11.18;9.00;;;12.80;99.90;;;;;;5010404;28;20033;-56
2022/10/21 01:45:38;;;;;;;10.98;9.88;;;12.80;99.90;;;;;;4995968;28;20035;-57
2022/10/21 01:48:31;;;;;;;11.45;9.57;;;12.80;99.90;;;;;;5001972;28;20030;-57
2022/10/21 01:51:18;;;;;;;10.73;9.23;;;12.80;99.90;;;;;;5017672;28;20026;-59
2022/10/21 01:54:46;;;;;;;11.43;10.07;;;12.90;99.90;;;;;;5016476;28;20113;-52
2022/10/21 01:57:37;;;;;;;11.13;9.43;;;12.80;99.90;;;;;;5010190;28;20560;-58
2022/10/21 02:00:24;;;;;;;12.18;10.00;;;12.80;99.90;;;;;;5010440;28;20398;-57
2022/10/21 02:03:15;;;;;;;10.93;9.75;;;12.80;99.90;;;;;;5023252;28;20026;-56
2022/10/21 02:06:02;;;;;;;12.95;9.93;;;12.80;99.90;;;;;;5025778;28;20022;-58
2022/10/21 02:08:48;;;;;;;10.27;9.20;;;12.80;99.90;;;;;;5013362;28;20488;-56
2022/10/21 02:11:36;;;;;;;10.85;8.73;;;12.70;99.90;;;;;;5013236;28;20037;-56
2022/10/21 02:14:33;;;;;;;11.93;9.23;;;12.70;99.90;;;;;;5014543;28;20045;-56
2022/10/21 02:17:21;;;;;;;11.52;10.32;;;12.80;99.90;;;;;;5015058;28;20037;-57
2022/10/21 02:20:10;;;;;;;16.75;10.77;;;12.80;99.90;;;;;;5018469;28;20403;-53
2022/10/21 02:22:57;;;;;;;10.93;9.68;;;12.70;99.90;;;;;;5015342;28;20026;-54
2022/10/21 02:25:46;;;;;;;11.32;9.65;;;12.70;99.90;;;;;;5001216;28;20160;-56
2022/10/21 02:28:32;;;;;;;10.18;9.10;;;12.70;99.90;;;;;;5015939;28;20164;-53
2022/10/21 02:31:21;;;;;;;11.90;9.32;;;12.80;99.90;;;;;;5000307;28;20038;-57
2022/10/21 02:34:40;;;;;;;10.23;9.23;;;12.80;99.90;;;;;;5013609;28;20030;-57
2022/10/21 02:37:49;;;;;;;10.88;8.57;;;12.90;99.90;;;;;;4996314;28;20037;-57
2022/10/21 02:41:00;;;;;;;12.85;9.48;;;12.90;99.90;;;;;;5013623;28;20026;-57
2022/10/21 02:43:50;;;;;;;10.75;9.23;;;12.90;99.90;;;;;;5013605;28;20116;-58
2022/10/21 02:46:42;;;;;;;11.57;9.13;;;12.80;99.90;;;;;;4994507;28;20491;-53
2022/10/21 02:49:28;;;;;;;13.10;9.80;;;12.80;99.90;;;;;;4999684;28;20383;-55
2022/10/21 02:52:14;;;;;;;15.02;11.35;;;12.80;99.90;;;;;;5013782;28;20085;-57
2022/10/21 02:55:00;;;;;;;13.02;10.30;;;12.80;99.90;;;;;;5013672;28;20045;-57
2022/10/21 02:57:46;;;;;;;10.93;9.60;;;12.80;99.90;;;;;;5013168;28;20024;-50
2022/10/21 03:00:32;;;;;;;10.85;9.15;;;12.80;99.90;;;;;;5013406;28;20525;-59
2022/10/21 03:03:18;;;;;;;12.50;9.98;;;12.90;99.90;;;;;;5012606;28;20033;-54
2022/10/21 03:06:04;;;;;;;11.18;9.65;;;12.80;99.90;;;;;;4998690;28;20057;-56
2022/10/21 03:08:50;;;;;;;11.55;9.50;;;12.80;99.90;;;;;;5017083;28;20042;-55
2022/10/21 03:11:36;;;;;;;12.35;9.35;;;12.80;99.90;;;;;;5022796;28;20049;-56
2022/10/21 03:14:22;;;;;;;11.07;9.35;;;12.80;99.90;;;;;;5023217;28;20034;-59
2022/10/21 03:17:07;;;;;;;15.90;14.23;;;12.90;99.90;;;;;;5024161;28;20018;-56
2022/10/21 03:19:53;;;;;;;12.65;11.38;;;12.90;99.90;;;;;;5016939;28;20432;-56
2022/10/21 03:22:39;;;;;;;14.88;13.20;;;12.90;99.90;;;;;;5013325;28;20030;-57
2022/10/21 03:25:25;;;;;;;20.25;15.52;;;12.90;99.90;;;;;;5013599;28;20041;-55
2022/10/21 03:28:11;;;;;;;13.00;10.15;;;12.90;99.90;;;;;;5012437;28;20491;-55
2022/10/21 03:30:57;;;;;;;14.05;8.95;;;12.80;99.90;;;;;;5015848;28;20128;-58
2022/10/21 03:33:43;;;;;;;11.05;9.77;;;12.80;99.90;;;;;;5013717;28;20041;-55
2022/10/21 03:36:29;;;;;;;12.43;9.90;;;12.80;99.90;;;;;;5013640;28;20314;-55
2022/10/21 03:39:15;;;;;;;29.75;24.20;;;12.90;99.90;;;;;;5014306;28;20109;-58
2022/10/21 03:42:01;;;;;;;20.40;15.10;;;12.90;99.90;;;;;;5013360;28;20446;-56
2022/10/21 03:44:47;;;;;;;15.23;12.18;;;13.00;99.90;;;;;;5013952;28;20026;-55
2022/10/21 03:47:33;;;;;;;11.85;10.45;;;13.00;99.90;;;;;;5012064;28;20022;-54
2022/10/21 03:50:20;;;;;;;11.85;10.27;;;13.00;99.90;;;;;;4994840;28;20089;-56
2022/10/21 03:53:06;;;;;;;17.58;11.15;;;13.00;99.90;;;;;;4996355;28;20038;-59
2022/10/21 03:55:52;;;;;;;14.07;10.32;;;13.00;99.90;;;;;;5013330;28;20061;-57
2022/10/21 03:58:38;;;;;;;10.70;9.60;;;13.00;99.90;;;;;;5011982;28;20025;-57
2022/10/21 04:01:24;;;;;;;16.90;11.07;;;13.00;99.90;;;;;;5011746;28;20110;-52
2022/10/21 04:04:10;;;;;;;12.20;10.25;;;13.10;99.90;;;;;;5011665;28;20038;-54
2022/10/21 04:06:56;;;;;;;10.52;9.52;;;13.10;99.90;;;;;;5003217;28;20097;-56
2022/10/21 04:09:42;;;;;;;10.93;9.82;;;13.10;99.90;;;;;;4992567;28;20038;-56
2022/10/21 04:12:28;;;;;;;11.27;10.07;;;13.10;99.90;;;;;;5004400;28;20034;-56
2022/10/21 04:15:14;;;;;;;13.77;10.55;;;13.10;99.90;;;;;;5013302;28;20036;-59
2022/10/21 04:18:00;;;;;;;12.75;10.10;;;13.10;99.90;;;;;;5012757;28;20052;-58
2022/10/21 04:20:46;;;;;;;12.48;10.10;;;13.10;99.90;;;;;;5011589;28;20026;-58
2022/10/21 04:23:32;;;;;;;10.30;8.95;;;13.10;99.90;;;;;;5011320;28;20442;-56
2022/10/21 04:26:18;;;;;;;12.15;10.32;;;13.10;99.90;;;;;;5012019;28;20413;-58
2022/10/21 04:29:03;;;;;;;11.35;9.93;;;13.10;99.90;;;;;;5012441;28;20026;-57
2022/10/21 04:31:49;;;;;;;12.43;9.82;;;13.10;99.90;;;;;;5012064;28;20730;-54
2022/10/21 04:34:35;;;;;;;12.88;10.10;;;13.10;99.90;;;;;;5012187;28;20064;-53
2022/10/21 04:37:21;;;;;;;12.07;10.10;;;13.10;99.90;;;;;;5011677;28;20588;-52
2022/10/21 04:40:08;;;;;;;11.35;10.15;;;13.20;99.90;;;;;;5004909;28;20042;-52
2022/10/21 04:42:54;;;;;;;12.30;9.75;;;13.20;99.90;;;;;;5005016;28;20106;-52
2022/10/21 04:45:40;;;;;;;14.75;10.38;;;13.20;99.90;;;;;;5011970;28;20033;-57
2022/10/21 04:48:26;;;;;;;13.10;10.65;;;13.20;99.90;;;;;;5015011;28;20032;-58
2022/10/21 04:51:12;;;;;;;12.63;10.18;;;13.20;99.90;;;;;;5018225;28;20030;-53
2022/10/21 04:53:58;;;;;;;12.18;9.63;;;13.10;99.90;;;;;;5005296;28;20030;-56
2022/10/21 04:56:44;;;;;;;13.25;9.90;;;13.10;99.90;;;;;;5011099;28;20483;-57
2022/10/21 04:59:29;;;;;;;13.50;10.48;;;13.20;99.90;;;;;;5011888;28;20498;-57
2022/10/21 05:02:15;;;;;;;12.00;10.65;;;13.00;99.90;;;;;;5010516;28;20395;-57
2022/10/21 05:05:01;;;;;;;21.50;18.23;;;13.10;99.90;;;;;;5011631;28;20018;-57
2022/10/21 05:07:47;;;;;;;16.85;11.82;;;13.10;99.90;;;;;;5009107;28;20486;-56
2022/10/21 05:10:33;;;;;;;12.35;11.07;;;13.10;99.90;;;;;;5010240;28;20608;-56
2022/10/21 05:13:19;;;;;;;12.23;10.43;;;13.10;99.90;;;;;;5011462;28;20041;-54
2022/10/21 05:16:05;;;;;;;19.85;10.52;;;13.10;99.90;;;;;;5009265;28;20034;-58
2022/10/21 05:18:51;;;;;;;15.95;10.38;;;13.10;99.90;;;;;;5006828;28;20025;-54
2022/10/21 05:21:38;;;;;;;12.55;9.95;;;13.10;99.90;;;;;;5010062;28;20033;-56
2022/10/21 05:24:24;;;;;;;11.85;10.55;;;13.10;99.90;;;;;;5010218;28;20026;-54
2022/10/21 05:27:10;;;;;;;13.90;10.60;;;13.10;99.90;;;;;;5007808;28;20045;-58
2022/10/21 05:29:57;;;;;;;15.45;10.57;;;13.10;99.90;;;;;;5009548;28;20029;-58
2022/10/21 05:32:43;;;;;;;11.30;10.10;;;13.10;99.90;;;;;;4989609;28;20069;-58
2022/10/21 05:35:29;;;;;;;11.65;10.45;;;13.10;99.90;;;;;;5009885;28;20026;-58
2022/10/21 05:38:15;;;;;;;16.77;10.73;;;13.10;99.90;;;;;;4993465;28;20024;-53
2022/10/21 05:41:01;;;;;;;15.07;10.75;;;13.10;99.90;;;;;;5009562;28;20026;-55
2022/10/21 05:43:47;;;;;;;12.02;10.70;;;13.10;99.90;;;;;;5005168;28;20034;-57
2022/10/21 05:46:33;;;;;;;12.15;10.70;;;13.10;99.90;;;;;;5009419;28;20030;-52
2022/10/21 05:49:18;;;;;;;13.98;11.43;;;13.10;99.90;;;;;;5008753;28;20494;-50
2022/10/21 05:52:04;;;;;;;14.90;11.07;;;13.10;99.90;;;;;;5006682;28;20406;-62
2022/10/21 05:54:50;;;;;;;12.93;11.25;;;13.10;99.90;;;;;;4993337;28;20030;-52
2022/10/21 05:57:37;;;;;;;16.63;14.27;;;13.10;99.90;;;;;;5009768;28;20025;-55
2022/10/21 06:00:23;;;;;;;17.10;11.65;;;13.10;99.90;;;;;;4995347;28;20034;-54
2022/10/21 06:03:09;;;;;;;14.77;11.52;;;13.20;99.90;;;;;;5009652;28;20030;-55
2022/10/21 06:06:00;;;;;;;12.85;10.60;;;13.10;99.90;;;;;;5010456;28;20121;-54
2022/10/21 06:08:46;;;;;;;12.50;11.18;;;13.10;99.90;;;;;;5006660;28;20022;-50
2022/10/21 06:11:32;;;;;;;18.73;11.70;;;13.10;99.90;;;;;;5005530;28;20109;-60
2022/10/21 06:14:19;;;;;;;13.30;11.05;;;13.10;99.90;;;;;;4984910;28;20041;-54
2022/10/21 06:17:05;;;;;;;14.68;11.32;;;13.10;99.90;;;;;;4998852;28;20114;-56
2022/10/21 06:19:51;;;;;;;15.43;12.57;;;13.10;99.90;;;;;;4995709;28;20037;-56
2022/10/21 06:22:37;;;;;;;15.18;12.18;;;13.10;99.90;;;;;;5010047;28;20041;-56
2022/10/21 06:25:23;;;;;;;18.58;11.55;;;13.20;99.90;;;;;;4996170;28;20034;-52
2022/10/21 06:28:09;;;;;;;19.45;11.30;;;13.20;99.90;;;;;;4995726;28;20026;-54
2022/10/21 06:30:55;;;;;;;15.02;11.18;;;13.20;99.90;;;;;;5009458;28;20041;-55
2022/10/21 06:33:41;;;;;;;14.93;11.05;;;13.30;99.90;;;;;;4991402;28;20034;-56
2022/10/21 06:36:28;;;;;;;18.20;10.90;;;13.30;99.90;;;;;;5008276;28;20094;-56
2022/10/21 06:39:14;;;;;;;16.05;12.00;;;13.40;99.90;;;;;;5010918;28;20085;-58
2022/10/21 06:42:00;;;;;;;15.73;11.80;;;13.40;99.90;;;;;;4980280;28;20034;-54
2022/10/21 06:44:46;;;;;;;15.93;11.00;;;13.40;99.90;;;;;;5001170;28;20125;-55
2022/10/21 06:47:32;;;;;;;12.95;10.75;;;13.40;99.90;;;;;;5009692;28;20113;-56
2022/10/21 06:50:18;;;;;;;15.80;11.32;;;13.50;99.90;;;;;;5010052;28;20038;-55
2022/10/21 06:53:04;;;;;;;18.55;11.82;;;13.50;99.90;;;;;;5009971;28;20022;-55
2022/10/21 06:55:58;;;;;;;15.80;12.90;;;13.50;99.90;;;;;;5013597;28;20066;-55
2022/10/21 06:58:46;;;;;;;19.38;12.85;;;13.50;99.90;;;;;;5013827;28;20054;-57
2022/10/21 07:01:33;;;;;;;16.63;12.65;;;13.50;99.90;;;;;;5013108;28;20072;-53
2022/10/21 07:04:18;;;;;;;14.35;11.80;;;13.40;99.90;;;;;;5012613;28;20438;-54
2022/10/21 07:07:04;;;;;;;15.82;12.50;;;13.50;99.90;;;;;;5013332;28;20053;-58
2022/10/21 07:09:50;;;;;;;13.68;12.07;;;13.40;99.90;;;;;;5014052;28;20071;-53
2022/10/21 07:12:37;;;;;;;17.75;11.95;;;13.50;99.90;;;;;;5011235;28;20100;-54
2022/10/21 07:15:23;;;;;;;20.88;11.30;;;13.50;99.90;;;;;;5012300;28;20033;-54
2022/10/21 07:18:09;;;;;;;19.45;12.57;;;13.60;99.90;;;;;;5012671;28;20026;-55
2022/10/21 07:20:55;;;;;;;16.23;12.70;;;13.60;99.90;;;;;;5012878;28;20046;-55
2022/10/21 07:23:40;;;;;;;17.60;12.40;;;13.70;99.90;;;;;;5013152;28;20034;-53
2022/10/21 07:26:31;;;;;;;15.18;11.35;;;13.70;99.90;;;;;;5013769;28;20030;-55
2022/10/21 07:29:17;;;;;;;21.98;15.38;;;13.80;99.90;;;;;;5013176;28;20033;-53
2022/10/21 07:32:03;;;;;;;20.08;12.75;;;13.80;99.90;;;;;;5011638;28;20030;-53
2022/10/21 07:34:49;;;;;;;17.67;12.27;;;13.90;99.90;;;;;;5012092;28;20026;-54
2022/10/21 07:37:35;;;;;;;19.00;12.18;;;13.90;99.90;;;;;;5012504;28;20141;-57
2022/10/21 07:40:21;;;;;;;15.70;12.82;;;13.90;99.90;;;;;;5012625;28;20048;-57
2022/10/21 07:43:07;;;;;;;16.58;12.48;;;13.90;99.90;;;;;;5012472;28;20029;-56
2022/10/21 07:45:53;;;;;;;16.33;11.85;;;13.90;99.90;;;;;;5012944;28;20410;-57
2022/10/21 07:48:39;;;;;;;14.90;11.85;;;13.90;99.90;;;;;;4998633;28;20034;-57
2022/10/21 07:51:26;;;;;;;12.50;11.23;;;13.90;99.90;;;;;;4997863;28;20042;-58
2022/10/21 07:54:13;;;;;;;18.13;12.95;;;13.90;99.90;;;;;;5012724;28;20110;-57
2022/10/21 07:56:59;;;;;;;22.33;13.40;;;13.90;99.90;;;;;;5012237;28;20066;-54
2022/10/21 07:59:45;;;;;;;20.20;13.63;;;14.00;99.90;;;;;;4993516;28;20027;-53
2022/10/21 08:02:31;;;;;;;18.33;13.15;;;14.00;99.90;;;;;;4995227;28;20545;-55
2022/10/21 08:05:18;;;;;;;17.73;15.07;;;14.00;99.90;;;;;;5011817;28;20506;-55
2022/10/21 08:08:04;;;;;;;18.52;14.98;;;14.00;99.90;;;;;;5011500;28;20127;-53
2022/10/21 08:10:51;;;;;;;18.73;13.50;;;14.00;99.90;;;;;;5012382;28;20104;-49
2022/10/21 08:13:43;;;;;;;18.92;13.13;;;14.10;99.90;;;;;;5011999;28;20401;-52
2022/10/21 08:16:29;;;;;;;27.17;14.10;;;14.20;99.90;;;;;;5014436;28;20026;-53
2022/10/21 08:19:19;;;;;;;20.40;13.82;;;14.30;99.90;;;;;;5022445;28;20030;-55
2022/10/21 08:22:05;;;;;;;19.88;10.52;;;14.40;99.90;;;;;;5013220;28;20430;-55
2022/10/21 08:24:51;;;;;;;16.00;12.07;;;14.70;99.90;;;;;;5014963;28;20464;-56
2022/10/21 08:27:37;;;;;;;15.98;11.80;;;15.00;99.90;;;;;;5010882;28;20551;-51
2022/10/21 08:30:24;;;;;;;16.73;12.35;;;15.30;99.90;;;;;;5011168;28;20390;-54
2022/10/21 08:33:11;;;;;;;18.35;14.05;;;15.50;99.90;;;;;;5011677;28;20029;-52
2022/10/21 08:35:57;;;;;;;16.00;12.10;;;15.60;99.90;;;;;;5011530;28;20414;-54
2022/10/21 08:38:43;;;;;;;15.82;11.82;;;15.60;99.70;;;;;;4996721;28;20044;-58
2022/10/21 08:41:29;;;;;;;15.20;11.52;;;15.50;99.10;;;;;;5012055;28;20058;-53
2022/10/21 08:44:25;;;;;;;13.52;11.52;;;15.50;99.40;;;;;;4996829;28;20085;-54
2022/10/21 08:47:44;;;;;;;14.45;11.32;;;15.50;99.40;;;;;;5011046;28;20160;-65
2022/10/21 08:50:37;;;;;;;19.45;11.93;;;15.60;99.60;;;;;;5010558;28;20526;-55
2022/10/21 08:53:28;;;;;;;16.15;12.82;;;15.80;99.20;;;;;;4992057;28;20031;-57
2022/10/21 08:56:15;;;;;;;15.88;12.55;;;15.90;98.70;;;;;;4997081;28;20028;-55
2022/10/21 08:59:01;;;;;;;17.10;11.98;;;16.00;98.40;;;;;;5005485;28;20061;-52
2022/10/21 09:02:22;;;;;;;15.40;12.63;;;16.10;98.20;;;;;;5010665;28;20502;-51
2022/10/21 09:05:42;;;;;;;17.35;11.52;;;16.10;98.10;;;;;;5006453;28;20042;-53
2022/10/21 09:08:52;;;;;;;16.48;11.13;;;16.00;98.20;;;;;;5010837;28;20022;-55
2022/10/21 09:12:04;;;;;;;14.75;11.73;;;16.00;98.40;;;;;;5010800;28;20026;-54
2022/10/21 09:15:35;;;;;;;13.50;11.60;;;16.10;98.10;;;;;;5011027;28;20068;-56
2022/10/21 09:18:39;;;;;;;15.15;11.13;;;16.20;97.90;;;;;;4984323;28;20038;-55
2022/10/21 09:21:58;;;;;;;16.38;12.38;;;16.20;98.10;;;;;;5011522;28;20026;-57
2022/10/21 09:25:04;;;;;;;20.02;12.75;;;16.30;97.90;;;;;;4991923;28;20078;-56
2022/10/21 09:27:51;;;;;;;13.43;12.00;;;16.30;98.00;;;;;;5007777;28;20053;-60
2022/10/21 09:30:38;;;;;;;14.82;11.15;;;16.30;98.30;;;;;;5010956;28;20030;-55
2022/10/21 09:33:27;;;;;;;12.40;10.93;;;16.40;98.00;;;;;;5007623;28;20037;-56
2022/10/21 09:36:22;;;;;;;15.20;12.43;;;16.50;98.10;;;;;;5011052;28;20018;-52
2022/10/21 09:39:28;;;;;;;15.95;12.25;;;16.50;97.90;;;;;;5010918;28;20030;-56
2022/10/21 09:42:13;;;;;;;;;;;16.60;97.80;;;;;;5012057;28;20034;-52
2022/10/21 09:44:59;;;;;;;11.68;10.45;;;16.60;98.00;;;;;;4995918;28;19914;-53
2022/10/21 09:47:54;;;;;;;16.42;12.20;;;16.60;98.10;;;;;;5010610;28;20030;-54
2022/10/21 09:50:40;;;;;;;15.77;11.85;;;16.70;97.80;;;;;;5010378;28;20041;-54
2022/10/21 09:53:38;;;;;;;20.02;12.45;;;16.80;98.00;;;;;;5011075;28;20046;-57
2022/10/21 09:56:29;;;;;;;15.52;12.07;;;16.70;98.20;;;;;;5011293;28;20053;-56
2022/10/21 09:59:18;;;;;;;17.17;13.10;;;16.60;98.20;;;;;;5010594;28;20026;-54
2022/10/21 10:02:06;;;;;;;16.95;12.20;;;16.60;98.30;;;;;;5010230;28;20101;-56
2022/10/21 10:04:53;;;;;;;22.02;14.25;;;16.50;98.70;;;;;;5010128;28;20030;-54
2022/10/21 10:07:38;;;;;;;18.75;13.50;;;16.50;98.90;;;;;;5010717;28;20450;-54
2022/10/21 10:10:31;;;;;;;17.77;14.98;;;16.40;99.00;;;;;;4995996;28;20038;-57
2022/10/21 10:13:22;;;;;;;17.17;13.52;;;16.40;99.10;;;;;;5010522;28;20052;-60
2022/10/21 10:16:31;;;;;;;18.05;15.50;;;16.40;99.50;;;;;;5010007;28;20026;-53
2022/10/21 10:19:20;;;;;;;18.98;16.00;;;16.30;99.40;;;;;;5011168;28;20061;-59
2022/10/21 10:22:15;;;;;;;18.70;15.57;;;16.10;99.60;;;;;;5000025;28;20145;-57
2022/10/21 10:25:11;;;;;;;18.50;15.15;;;16.10;99.90;;;;;;5014877;28;20101;-57
2022/10/21 10:28:00;;;;;;;19.17;15.88;;;16.10;99.90;;;;;;5018169;28;20102;-54
2022/10/21 10:30:55;;;;;;;16.85;14.82;;;16.00;99.90;;;;;;5000940;28;20101;-55
2022/10/21 10:33:57;;;;;;;18.27;15.02;;;16.00;99.90;;;;;;5016466;28;20041;-52
2022/10/21 10:36:43;;;;;;;19.98;14.65;;;16.00;99.90;;;;;;4999143;28;20120;-56
2022/10/21 10:39:32;;;;;;;20.48;15.35;;;16.10;99.90;;;;;;4999552;28;20034;-53
2022/10/21 10:42:27;;;;;;;20.38;12.68;;;16.10;99.90;;;;;;5014430;28;20025;-58
2022/10/21 10:45:18;;;;;;;18.60;13.00;;;16.10;99.90;;;;;;5014019;28;20409;-56
2022/10/21 10:48:07;;;;;;;17.10;12.80;;;16.00;99.90;;;;;;4998522;28;20034;-54
2022/10/21 10:50:53;;;;;;;17.67;12.40;;;16.10;99.90;;;;;;5013786;28;20032;-61
2022/10/21 10:53:38;;;;;;;16.80;11.45;;;16.10;99.90;;;;;;4995187;28;20117;-56
2022/10/21 10:56:43;;;;;;;15.32;12.52;;;16.10;99.90;;;;;;4996081;28;20046;-57
2022/10/21 10:59:43;;;;;;;13.82;12.07;;;16.10;99.90;;;;;;5014054;28;20022;-57
2022/10/21 11:02:59;;;;;;;14.00;11.93;;;16.20;99.90;;;;;;5012337;28;20018;-59
2022/10/21 11:05:52;;;;;;;14.15;11.57;;;16.20;99.90;;;;;;5013121;28;20109;-54
2022/10/21 11:08:42;;;;;;;17.48;11.88;;;16.30;99.90;;;;;;5013489;28;20478;-57
2022/10/21 11:11:42;;;;;;;14.90;12.15;;;16.30;99.90;;;;;;4993873;28;20483;-54
2022/10/21 11:14:27;;;;;;;15.23;12.05;;;16.40;99.90;;;;;;4999120;28;20493;-56
2022/10/21 11:17:18;;;;;;;19.02;12.05;;;16.50;99.90;;;;;;5013039;28;20461;-58
2022/10/21 11:20:26;;;;;;;16.98;11.15;;;16.50;99.90;;;;;;5013115;28;20030;-59
2022/10/21 11:23:33;;;;;;;13.82;11.32;;;16.60;99.90;;;;;;5014092;28;20041;-55
2022/10/21 11:26:26;;;;;;;18.00;11.48;;;16.60;99.90;;;;;;5013653;28;20368;-53
2022/10/21 11:29:34;;;;;;;14.90;12.15;;;16.70;99.90;;;;;;4994754;28;20089;-58
2022/10/21 11:32:31;;;;;;;16.08;12.85;;;16.80;99.90;;;;;;4999634;28;20121;-54
2022/10/21 11:35:47;;;;;;;14.27;12.00;;;16.80;99.90;;;;;;5013529;28;20029;-57
2022/10/21 11:38:58;;;;;;;19.63;14.52;;;16.90;99.90;;;;;;5016158;28;20057;-53
2022/10/21 11:41:54;;;;;;;18.55;14.75;;;16.90;99.90;;;;;;5011573;28;20565;-51
2022/10/21 11:45:01;;;;;;;17.73;13.48;;;16.90;99.90;;;;;;5002293;28;20108;-55
2022/10/21 11:48:08;;;;;;;15.70;11.75;;;16.80;99.90;;;;;;5013945;28;20037;-52
2022/10/21 11:51:37;;;;;;;12.30;10.75;;;16.80;99.90;;;;;;5017794;28;20513;-57
2022/10/21 11:54:35;;;;;;;17.35;12.10;;;16.70;99.90;;;;;;5012533;28;20026;-56
2022/10/21 11:57:37;;;;;;;15.65;11.18;;;16.70;99.90;;;;;;5014035;28;20033;-55
2022/10/21 12:00:26;;;;;;;16.05;11.20;;;16.70;99.90;;;;;;5012977;28;20026;-56
2022/10/21 12:03:38;;;;;;;13.90;11.52;;;16.70;99.90;;;;;;4998214;28;20038;-56
2022/10/21 12:06:53;;;;;;;14.80;10.82;;;16.70;99.90;;;;;;5017841;28;20394;-56
2022/10/21 12:09:51;;;;;;;19.80;11.93;;;16.80;99.90;;;;;;5001209;28;20035;-52
2022/10/21 12:12:41;;;;;;;17.45;12.10;;;16.80;99.90;;;;;;4994088;28;20277;-59
2022/10/21 12:16:03;;;;;;;13.32;11.35;;;16.80;99.90;;;;;;5006167;28;20026;-54
2022/10/21 12:19:04;;;;;;;16.17;12.77;;;16.70;99.90;;;;;;5016970;28;20026;-55
2022/10/21 12:21:51;;;;;;;17.52;12.23;;;16.80;99.90;;;;;;5021742;28;20026;-55
2022/10/21 12:24:51;;;;;;;16.75;11.85;;;16.80;99.90;;;;;;4996022;28;20019;-58
2022/10/21 12:27:47;;;;;;;14.00;11.57;;;16.80;99.90;;;;;;4992782;28;20061;-58
2022/10/21 12:30:49;;;;;;;21.42;12.98;;;16.70;99.90;;;;;;5011080;28;20049;-60
2022/10/21 12:33:41;;;;;;;19.67;12.93;;;16.80;99.90;;;;;;5011560;28;20117;-53
2022/10/21 12:36:47;;;;;;;16.15;13.52;;;16.70;99.90;;;;;;4996617;28;20650;-57
2022/10/21 12:39:33;;;;;;;16.80;13.07;;;16.70;99.90;;;;;;5014153;28;20482;-59
2022/10/21 12:42:27;;;;;;;16.95;14.02;;;16.70;99.90;;;;;;5011801;28;20451;-56
2022/10/21 12:45:31;;;;;;;19.23;13.60;;;16.60;99.90;;;;;;4996474;28;20409;-57
2022/10/21 12:48:51;;;;;;;32.63;25.42;;;16.60;99.90;;;;;;5013577;28;20366;-56
2022/10/21 12:51:38;;;;;;;20.08;16.42;;;16.50;99.90;;;;;;4948268;28;20031;-58
2022/10/21 12:54:28;;;;;;;22.42;17.25;;;16.50;99.90;;;;;;4984877;28;20486;-57
2022/10/21 12:57:40;;;;;;;28.27;18.75;;;16.40;99.90;;;;;;5010797;28;20083;-58
2022/10/21 13:00:26;;;;;;;30.27;19.35;;;16.40;99.90;;;;;;5008142;28;20034;-56
2022/10/21 13:03:19;;;;;;;25.30;19.90;;;16.30;99.90;;;;;;5010519;28;20033;-58
2022/10/21 13:06:05;;;;;;;26.08;20.05;;;16.20;99.90;;;;;;5002878;28;20109;-58
2022/10/21 13:08:54;;;;;;;24.85;21.17;;;16.10;99.90;;;;;;5011997;28;20733;-59
2022/10/21 13:11:40;;;;;;;29.42;21.73;;;16.20;99.90;;;;;;5023809;28;20030;-63
2022/10/21 13:14:44;;;;;;;24.70;20.75;;;16.10;99.90;;;;;;4995167;28;20063;-65
2022/10/21 13:17:47;;;;;;;30.52;23.02;;;16.10;99.90;;;;;;5010452;28;20022;-65
2022/10/21 13:20:37;;;;;;;29.90;22.55;;;16.10;99.90;;;;;;4998816;28;20517;-65
2022/10/21 13:23:37;;;;;;;30.67;25.85;;;16.00;99.90;;;;;;5012495;28;20033;-64
2022/10/21 13:26:28;;;;;;;35.70;25.20;;;16.00;99.90;;;;;;5007728;28;20026;-65
2022/10/21 13:29:39;;;;;;;27.27;22.27;;;16.00;99.90;;;;;;4996191;28;20094;-64
2022/10/21 13:32:33;;;;;;;28.15;24.10;;;16.10;99.90;;;;;;4968949;28;20029;-61
2022/10/21 13:35:19;;;;;;;29.60;22.83;;;16.00;99.90;;;;;;4977433;28;20031;-63
2022/10/21 13:38:29;;;;;;;30.92;22.70;;;16.10;99.90;;;;;;5006188;28;20324;-61
2022/10/21 13:41:28;;;;;;;36.60;30.60;;;16.10;99.90;;;;;;4998864;28;20026;-59
2022/10/21 13:44:29;;;;;;;28.77;24.75;;;16.20;99.90;;;;;;5019155;28;20097;-60
2022/10/21 13:47:29;;;;;;;27.35;21.02;;;16.20;99.90;;;;;;5019201;28;20042;-62
2022/10/21 13:50:19;;;;;;;22.48;18.55;;;16.30;99.90;;;;;;5027525;28;20056;-62
2022/10/21 13:53:28;;;;;;;22.15;17.38;;;16.30;99.90;;;;;;5005402;28;20029;-61
2022/10/21 13:56:29;;;;;;;20.05;17.42;;;16.50;99.90;;;;;;5012940;28;20118;-61
2022/10/21 13:59:31;;;;;;;19.23;16.02;;;16.50;99.90;;;;;;5010193;28;20026;-61
2022/10/21 14:02:25;;;;;;;23.88;15.93;;;16.50;99.90;;;;;;5009921;28;20026;-63
2022/10/21 14:05:26;;;;;;;17.00;14.88;;;16.50;99.90;;;;;;5011301;28;20053;-60
2022/10/21 14:08:21;;;;;;;17.83;15.20;;;16.60;99.90;;;;;;4993726;28;20022;-62
2022/10/21 14:11:26;;;;;;;21.52;15.60;;;16.60;99.90;;;;;;5004917;28;20057;-62
2022/10/21 14:14:16;;;;;;;20.38;15.38;;;16.60;99.90;;;;;;4996277;28;20030;-60
2022/10/21 14:17:17;;;;;;;18.10;13.80;;;16.50;99.90;;;;;;5009650;28;20083;-62
2022/10/21 14:20:34;;;;;;;21.52;15.48;;;16.40;99.90;;;;;;5009183;28;20398;-63
2022/10/21 14:23:22;;;;;;;24.40;16.27;;;16.30;99.90;;;;;;4995481;28;20052;-63
2022/10/21 14:26:09;;;;;;;20.50;16.67;;;16.30;99.90;;;;;;5005550;28;20097;-62
2022/10/21 14:28:56;;;;;;;25.10;20.35;;;16.20;99.90;;;;;;4982904;28;20040;-63
2022/10/21 14:31:44;;;;;;;21.08;17.73;;;16.20;99.90;;;;;;4996404;28;20174;-62
2022/10/21 14:34:32;;;;;;;20.55;16.48;;;16.10;99.90;;;;;;5009493;28;20391;-61
2022/10/21 14:37:20;;;;;;;30.08;20.25;;;16.10;99.90;;;;;;5011284;28;20026;-63